sensor_id;sensor_type;location;lat;lon;timestamp;P1;durP1;ratioP1;P2;durP2;ratioP2
21822;SDS011;11074;48.596;9.238;2023-08-01T00:01:08;6.82;;;3.03;;
21822;SDS011;11074;48.596;9.238;2023-08-01T00:03:33;4.75;;;2.65;;
21822;SDS011;11074;48.596;9.238;2023-08-01T00:05:59;5.30;;;2.80;;
21822;SDS011;11074;48.596;9.238;2023-08-01T00:08:25;4.38;;;3.10;;
21822;SDS011;11074;48.596;9.238;2023-08-01T00:10:50;4.55;;;3.25;;
21822;SDS011;11074;48.596;9.238;2023-08-01T00:13:16;4.63;;;3.10;;
21822;SDS011;11074;48.596;9.238;2023-08-01T00:15:42;4.78;;;3.00;;
21822;SDS011;11074;48.596;9.238;2023-08-01T00:18:07;5.40;;;3.20;;
21822;SDS011;11074;48.596;9.238;2023-08-01T00:20:33;6.28;;;3.30;;
21822;SDS011;11074;48.596;9.238;2023-08-01T00:22:58;7.25;;;3.00;;
21822;SDS011;11074;48.596;9.238;2023-08-01T00:25:24;6.28;;;3.33;;
21822;SDS011;11074;48.596;9.238;2023-08-01T00:27:50;7.50;;;2.97;;
21822;SDS011;11074;48.596;9.238;2023-08-01T00:30:16;5.97;;;2.95;;
21822;SDS011;11074;48.596;9.238;2023-08-01T00:32:42;6.75;;;3.20;;
21822;SDS011;11074;48.596;9.238;2023-08-01T00:35:08;4.85;;;3.05;;
21822;SDS011;11074;48.596;9.238;2023-08-01T00:37:33;5.82;;;2.95;;
21822;SDS011;11074;48.596;9.238;2023-08-01T00:39:59;6.32;;;3.10;;
21822;SDS011;11074;48.596;9.238;2023-08-01T00:42:24;4.95;;;3.03;;
21822;SDS011;11074;48.596;9.238;2023-08-01T00:44:50;5.90;;;3.30;;
21822;SDS011;11074;48.596;9.238;2023-08-01T00:47:16;5.78;;;3.03;;
21822;SDS011;11074;48.596;9.238;2023-08-01T00:49:42;5.07;;;2.90;;
21822;SDS011;11074;48.596;9.238;2023-08-01T00:52:08;5.93;;;3.30;;
21822;SDS011;11074;48.596;9.238;2023-08-01T00:54:35;5.93;;;3.22;;
21822;SDS011;11074;48.596;9.238;2023-08-01T00:57:04;6.65;;;3.20;;
21822;SDS011;11074;48.596;9.238;2023-08-01T00:59:31;4.65;;;2.83;;
21822;SDS011;11074;48.596;9.238;2023-08-01T01:01:58;8.48;;;3.35;;
21822;SDS011;11074;48.596;9.238;2023-08-01T01:04:25;4.50;;;3.05;;
21822;SDS011;11074;48.596;9.238;2023-08-01T01:07:05;4.45;;;2.95;;
21822;SDS011;11074;48.596;9.238;2023-08-01T01:09:32;9.65;;;3.20;;
21822;SDS011;11074;48.596;9.238;2023-08-01T01:11:58;5.80;;;3.30;;
21822;SDS011;11074;48.596;9.238;2023-08-01T01:14:26;5.93;;;3.30;;
21822;SDS011;11074;48.596;9.238;2023-08-01T01:16:52;6.65;;;3.10;;
21822;SDS011;11074;48.596;9.238;2023-08-01T01:19:18;4.68;;;3.13;;
21822;SDS011;11074;48.596;9.238;2023-08-01T01:21:43;6.40;;;3.45;;
21822;SDS011;11074;48.596;9.238;2023-08-01T01:24:11;5.40;;;3.28;;
21822;SDS011;11074;48.596;9.238;2023-08-01T01:26:40;5.05;;;2.90;;
21822;SDS011;11074;48.596;9.238;2023-08-01T01:29:07;6.07;;;3.47;;
21822;SDS011;11074;48.596;9.238;2023-08-01T01:31:36;6.13;;;3.20;;
21822;SDS011;11074;48.596;9.238;2023-08-01T01:34:03;7.18;;;3.17;;
21822;SDS011;11074;48.596;9.238;2023-08-01T01:36:29;6.57;;;3.40;;
21822;SDS011;11074;48.596;9.238;2023-08-01T01:38:55;5.30;;;3.40;;
21822;SDS011;11074;48.596;9.238;2023-08-01T01:41:21;6.05;;;3.45;;
21822;SDS011;11074;48.596;9.238;2023-08-01T01:43:47;5.63;;;2.95;;
21822;SDS011;11074;48.596;9.238;2023-08-01T01:46:13;5.60;;;2.78;;
21822;SDS011;11074;48.596;9.238;2023-08-01T01:48:39;6.30;;;3.17;;
21822;SDS011;11074;48.596;9.238;2023-08-01T01:51:07;4.85;;;3.00;;
21822;SDS011;11074;48.596;9.238;2023-08-01T01:53:33;5.45;;;2.70;;
21822;SDS011;11074;48.596;9.238;2023-08-01T01:55:58;6.03;;;3.45;;
21822;SDS011;11074;48.596;9.238;2023-08-01T01:58:24;4.88;;;2.90;;
21822;SDS011;11074;48.596;9.238;2023-08-01T02:00:50;5.38;;;2.72;;
21822;SDS011;11074;48.596;9.238;2023-08-01T02:03:15;5.85;;;3.03;;
21822;SDS011;11074;48.596;9.238;2023-08-01T02:05:41;6.40;;;2.85;;
21822;SDS011;11074;48.596;9.238;2023-08-01T02:08:07;4.97;;;3.22;;
21822;SDS011;11074;48.596;9.238;2023-08-01T02:10:32;6.45;;;3.30;;
21822;SDS011;11074;48.596;9.238;2023-08-01T02:12:58;6.50;;;3.30;;
21822;SDS011;11074;48.596;9.238;2023-08-01T02:15:24;4.50;;;2.95;;
21822;SDS011;11074;48.596;9.238;2023-08-01T02:17:50;4.70;;;2.72;;
21822;SDS011;11074;48.596;9.238;2023-08-01T02:20:15;5.32;;;2.97;;
21822;SDS011;11074;48.596;9.238;2023-08-01T02:22:41;5.22;;;3.17;;
21822;SDS011;11074;48.596;9.238;2023-08-01T02:25:07;6.00;;;3.25;;
21822;SDS011;11074;48.596;9.238;2023-08-01T02:27:33;5.07;;;3.10;;
21822;SDS011;11074;48.596;9.238;2023-08-01T02:29:59;4.55;;;2.80;;
21822;SDS011;11074;48.596;9.238;2023-08-01T02:32:25;4.25;;;2.80;;
21822;SDS011;11074;48.596;9.238;2023-08-01T02:34:50;5.28;;;2.70;;
21822;SDS011;11074;48.596;9.238;2023-08-01T02:37:16;5.40;;;3.13;;
21822;SDS011;11074;48.596;9.238;2023-08-01T02:39:42;6.07;;;3.30;;
21822;SDS011;11074;48.596;9.238;2023-08-01T02:42:07;5.88;;;2.90;;
21822;SDS011;11074;48.596;9.238;2023-08-01T02:44:33;5.25;;;3.10;;
21822;SDS011;11074;48.596;9.238;2023-08-01T02:46:59;4.68;;;2.80;;
21822;SDS011;11074;48.596;9.238;2023-08-01T02:49:25;5.57;;;2.92;;
21822;SDS011;11074;48.596;9.238;2023-08-01T02:51:50;5.13;;;3.10;;
21822;SDS011;11074;48.596;9.238;2023-08-01T02:54:16;4.88;;;2.97;;
21822;SDS011;11074;48.596;9.238;2023-08-01T02:56:42;4.40;;;2.80;;
21822;SDS011;11074;48.596;9.238;2023-08-01T02:59:08;8.30;;;3.05;;
21822;SDS011;11074;48.596;9.238;2023-08-01T03:01:38;5.05;;;3.10;;
21822;SDS011;11074;48.596;9.238;2023-08-01T03:04:04;6.15;;;3.33;;
21822;SDS011;11074;48.596;9.238;2023-08-01T03:06:32;4.07;;;2.72;;
21822;SDS011;11074;48.596;9.238;2023-08-01T03:08:58;5.40;;;3.10;;
21822;SDS011;11074;48.596;9.238;2023-08-01T03:11:24;4.18;;;2.83;;
21822;SDS011;11074;48.596;9.238;2023-08-01T03:13:51;6.03;;;3.30;;
21822;SDS011;11074;48.596;9.238;2023-08-01T03:16:17;5.45;;;3.20;;
21822;SDS011;11074;48.596;9.238;2023-08-01T03:18:42;4.93;;;2.70;;
21822;SDS011;11074;48.596;9.238;2023-08-01T03:21:08;4.07;;;2.67;;
21822;SDS011;11074;48.596;9.238;2023-08-01T03:23:35;5.15;;;3.25;;
21822;SDS011;11074;48.596;9.238;2023-08-01T03:26:01;5.68;;;2.83;;
21822;SDS011;11074;48.596;9.238;2023-08-01T03:28:26;5.15;;;3.00;;
21822;SDS011;11074;48.596;9.238;2023-08-01T03:30:52;5.63;;;2.97;;
21822;SDS011;11074;48.596;9.238;2023-08-01T03:33:19;6.05;;;3.13;;
21822;SDS011;11074;48.596;9.238;2023-08-01T03:35:46;4.97;;;2.88;;
21822;SDS011;11074;48.596;9.238;2023-08-01T03:38:11;4.80;;;3.35;;
21822;SDS011;11074;48.596;9.238;2023-08-01T03:40:37;4.65;;;2.97;;
21822;SDS011;11074;48.596;9.238;2023-08-01T03:43:03;4.80;;;2.78;;
21822;SDS011;11074;48.596;9.238;2023-08-01T03:45:30;6.95;;;3.38;;
21822;SDS011;11074;48.596;9.238;2023-08-01T03:47:55;5.32;;;3.05;;
21822;SDS011;11074;48.596;9.238;2023-08-01T03:50:21;4.20;;;3.10;;
21822;SDS011;11074;48.596;9.238;2023-08-01T03:52:46;5.13;;;3.30;;
21822;SDS011;11074;48.596;9.238;2023-08-01T03:55:12;5.47;;;2.85;;
21822;SDS011;11074;48.596;9.238;2023-08-01T03:57:38;5.80;;;3.35;;
21822;SDS011;11074;48.596;9.238;2023-08-01T04:00:07;5.30;;;3.00;;
21822;SDS011;11074;48.596;9.238;2023-08-01T04:02:41;5.63;;;3.20;;
21822;SDS011;11074;48.596;9.238;2023-08-01T04:05:08;6.63;;;3.60;;
21822;SDS011;11074;48.596;9.238;2023-08-01T04:07:34;4.53;;;2.70;;
21822;SDS011;11074;48.596;9.238;2023-08-01T04:10:02;4.88;;;2.88;;
21822;SDS011;11074;48.596;9.238;2023-08-01T04:12:28;5.93;;;3.00;;
21822;SDS011;11074;48.596;9.238;2023-08-01T04:14:58;5.28;;;3.15;;
21822;SDS011;11074;48.596;9.238;2023-08-01T04:17:24;5.75;;;2.92;;
21822;SDS011;11074;48.596;9.238;2023-08-01T04:19:50;5.65;;;3.10;;
21822;SDS011;11074;48.596;9.238;2023-08-01T04:22:16;6.65;;;3.00;;
21822;SDS011;11074;48.596;9.238;2023-08-01T04:24:42;5.55;;;3.13;;
21822;SDS011;11074;48.596;9.238;2023-08-01T04:27:07;4.88;;;2.90;;
21822;SDS011;11074;48.596;9.238;2023-08-01T04:29:34;4.90;;;3.20;;
21822;SDS011;11074;48.596;9.238;2023-08-01T04:31:59;5.38;;;3.17;;
21822;SDS011;11074;48.596;9.238;2023-08-01T04:34:25;4.82;;;3.22;;
21822;SDS011;11074;48.596;9.238;2023-08-01T04:36:51;5.72;;;2.95;;
21822;SDS011;11074;48.596;9.238;2023-08-01T04:39:16;5.00;;;2.65;;
21822;SDS011;11074;48.596;9.238;2023-08-01T04:41:42;5.25;;;2.80;;
21822;SDS011;11074;48.596;9.238;2023-08-01T04:44:08;5.53;;;3.25;;
21822;SDS011;11074;48.596;9.238;2023-08-01T04:46:33;4.97;;;3.00;;
21822;SDS011;11074;48.596;9.238;2023-08-01T04:48:59;6.25;;;3.22;;
21822;SDS011;11074;48.596;9.238;2023-08-01T04:51:25;5.13;;;2.97;;
21822;SDS011;11074;48.596;9.238;2023-08-01T04:53:50;4.57;;;2.80;;
21822;SDS011;11074;48.596;9.238;2023-08-01T04:56:16;7.05;;;3.10;;
21822;SDS011;11074;48.596;9.238;2023-08-01T04:58:42;5.68;;;3.05;;
21822;SDS011;11074;48.596;9.238;2023-08-01T05:01:08;6.07;;;2.90;;
21822;SDS011;11074;48.596;9.238;2023-08-01T05:03:33;5.53;;;2.78;;
21822;SDS011;11074;48.596;9.238;2023-08-01T05:05:59;5.75;;;3.20;;
21822;SDS011;11074;48.596;9.238;2023-08-01T05:08:25;4.85;;;2.92;;
21822;SDS011;11074;48.596;9.238;2023-08-01T05:10:51;4.10;;;2.63;;
21822;SDS011;11074;48.596;9.238;2023-08-01T05:13:17;5.50;;;3.00;;
21822;SDS011;11074;48.596;9.238;2023-08-01T05:15:46;5.40;;;2.95;;
21822;SDS011;11074;48.596;9.238;2023-08-01T05:18:13;4.78;;;3.03;;
21822;SDS011;11074;48.596;9.238;2023-08-01T05:20:40;5.88;;;3.40;;
21822;SDS011;11074;48.596;9.238;2023-08-01T05:23:05;7.15;;;3.40;;
21822;SDS011;11074;48.596;9.238;2023-08-01T05:25:31;6.97;;;3.25;;
21822;SDS011;11074;48.596;9.238;2023-08-01T05:27:57;8.18;;;3.20;;
21822;SDS011;11074;48.596;9.238;2023-08-01T05:30:23;4.93;;;3.53;;
21822;SDS011;11074;48.596;9.238;2023-08-01T05:32:49;6.63;;;3.45;;
21822;SDS011;11074;48.596;9.238;2023-08-01T05:35:15;5.82;;;3.25;;
21822;SDS011;11074;48.596;9.238;2023-08-01T05:37:42;5.78;;;3.40;;
21822;SDS011;11074;48.596;9.238;2023-08-01T05:40:08;6.25;;;3.17;;
21822;SDS011;11074;48.596;9.238;2023-08-01T05:42:35;6.60;;;3.40;;
21822;SDS011;11074;48.596;9.238;2023-08-01T05:45:01;5.75;;;3.38;;
21822;SDS011;11074;48.596;9.238;2023-08-01T05:47:26;8.23;;;3.20;;
21822;SDS011;11074;48.596;9.238;2023-08-01T05:49:52;5.40;;;3.30;;
21822;SDS011;11074;48.596;9.238;2023-08-01T05:52:21;5.75;;;3.13;;
21822;SDS011;11074;48.596;9.238;2023-08-01T05:54:50;5.00;;;3.05;;
21822;SDS011;11074;48.596;9.238;2023-08-01T05:57:15;4.55;;;3.00;;
21822;SDS011;11074;48.596;9.238;2023-08-01T05:59:41;5.68;;;3.15;;
21822;SDS011;11074;48.596;9.238;2023-08-01T06:02:07;5.40;;;3.00;;
21822;SDS011;11074;48.596;9.238;2023-08-01T06:04:32;6.75;;;3.03;;
21822;SDS011;11074;48.596;9.238;2023-08-01T06:06:58;4.32;;;2.80;;
21822;SDS011;11074;48.596;9.238;2023-08-01T06:09:24;6.20;;;2.90;;
21822;SDS011;11074;48.596;9.238;2023-08-01T06:11:50;4.38;;;2.60;;
21822;SDS011;11074;48.596;9.238;2023-08-01T06:14:16;6.68;;;2.60;;
21822;SDS011;11074;48.596;9.238;2023-08-01T06:16:42;4.15;;;2.60;;
21822;SDS011;11074;48.596;9.238;2023-08-01T06:19:08;4.60;;;2.60;;
21822;SDS011;11074;48.596;9.238;2023-08-01T06:21:34;6.05;;;2.97;;
21822;SDS011;11074;48.596;9.238;2023-08-01T06:24:00;5.55;;;3.08;;
21822;SDS011;11074;48.596;9.238;2023-08-01T06:26:25;4.40;;;2.60;;
21822;SDS011;11074;48.596;9.238;2023-08-01T06:28:52;5.05;;;3.25;;
21822;SDS011;11074;48.596;9.238;2023-08-01T06:31:19;7.20;;;3.80;;
21822;SDS011;11074;48.596;9.238;2023-08-01T06:33:45;5.13;;;3.20;;
21822;SDS011;11074;48.596;9.238;2023-08-01T06:36:11;6.20;;;3.80;;
21822;SDS011;11074;48.596;9.238;2023-08-01T06:38:38;6.72;;;4.03;;
21822;SDS011;11074;48.596;9.238;2023-08-01T06:41:04;5.63;;;4.03;;
21822;SDS011;11074;48.596;9.238;2023-08-01T06:43:29;5.85;;;3.95;;
21822;SDS011;11074;48.596;9.238;2023-08-01T06:45:55;6.78;;;4.28;;
21822;SDS011;11074;48.596;9.238;2023-08-01T06:48:21;7.10;;;3.90;;
21822;SDS011;11074;48.596;9.238;2023-08-01T06:50:46;6.20;;;4.32;;
21822;SDS011;11074;48.596;9.238;2023-08-01T06:53:12;5.90;;;3.67;;
21822;SDS011;11074;48.596;9.238;2023-08-01T06:55:38;7.35;;;4.03;;
21822;SDS011;11074;48.596;9.238;2023-08-01T06:58:04;6.15;;;3.70;;
21822;SDS011;11074;48.596;9.238;2023-08-01T07:00:31;6.63;;;3.88;;
21822;SDS011;11074;48.596;9.238;2023-08-01T07:02:56;7.05;;;4.40;;
21822;SDS011;11074;48.596;9.238;2023-08-01T07:05:22;7.47;;;4.20;;
21822;SDS011;11074;48.596;9.238;2023-08-01T07:07:48;5.95;;;4.03;;
21822;SDS011;11074;48.596;9.238;2023-08-01T07:10:14;6.07;;;3.67;;
21822;SDS011;11074;48.596;9.238;2023-08-01T07:12:39;10.02;;;4.57;;
21822;SDS011;11074;48.596;9.238;2023-08-01T07:15:05;6.57;;;3.83;;
21822;SDS011;11074;48.596;9.238;2023-08-01T07:17:32;5.85;;;3.90;;
21822;SDS011;11074;48.596;9.238;2023-08-01T07:19:58;6.28;;;4.00;;
21822;SDS011;11074;48.596;9.238;2023-08-01T07:22:24;5.97;;;3.80;;
21822;SDS011;11074;48.596;9.238;2023-08-01T07:24:55;6.53;;;4.00;;
21822;SDS011;11074;48.596;9.238;2023-08-01T07:27:21;6.35;;;3.85;;
21822;SDS011;11074;48.596;9.238;2023-08-01T07:29:47;6.32;;;3.95;;
21822;SDS011;11074;48.596;9.238;2023-08-01T07:32:13;6.22;;;4.07;;
21822;SDS011;11074;48.596;9.238;2023-08-01T07:34:39;6.85;;;3.85;;
21822;SDS011;11074;48.596;9.238;2023-08-01T07:37:05;6.85;;;4.28;;
21822;SDS011;11074;48.596;9.238;2023-08-01T07:39:31;7.38;;;4.05;;
21822;SDS011;11074;48.596;9.238;2023-08-01T07:41:59;5.90;;;3.78;;
21822;SDS011;11074;48.596;9.238;2023-08-01T07:44:24;7.93;;;3.72;;
21822;SDS011;11074;48.596;9.238;2023-08-01T07:46:50;5.70;;;3.75;;
21822;SDS011;11074;48.596;9.238;2023-08-01T07:49:16;4.70;;;3.50;;
21822;SDS011;11074;48.596;9.238;2023-08-01T07:51:41;6.47;;;3.95;;
21822;SDS011;11074;48.596;9.238;2023-08-01T07:54:07;6.10;;;4.03;;
21822;SDS011;11074;48.596;9.238;2023-08-01T07:56:32;6.68;;;3.85;;
21822;SDS011;11074;48.596;9.238;2023-08-01T07:58:58;7.55;;;3.60;;
21822;SDS011;11074;48.596;9.238;2023-08-01T08:01:24;10.90;;;4.38;;
21822;SDS011;11074;48.596;9.238;2023-08-01T08:03:49;6.85;;;3.78;;
21822;SDS011;11074;48.596;9.238;2023-08-01T08:06:15;7.78;;;3.70;;
21822;SDS011;11074;48.596;9.238;2023-08-01T08:08:41;7.70;;;3.97;;
21822;SDS011;11074;48.596;9.238;2023-08-01T08:11:06;7.18;;;4.15;;
21822;SDS011;11074;48.596;9.238;2023-08-01T08:13:32;7.20;;;3.65;;
21822;SDS011;11074;48.596;9.238;2023-08-01T08:15:58;8.65;;;4.30;;
21822;SDS011;11074;48.596;9.238;2023-08-01T08:18:24;7.07;;;4.05;;
21822;SDS011;11074;48.596;9.238;2023-08-01T08:20:49;5.43;;;3.65;;
21822;SDS011;11074;48.596;9.238;2023-08-01T08:23:15;6.40;;;4.00;;
21822;SDS011;11074;48.596;9.238;2023-08-01T08:25:42;9.32;;;4.57;;
21822;SDS011;11074;48.596;9.238;2023-08-01T08:28:09;7.85;;;3.63;;
21822;SDS011;11074;48.596;9.238;2023-08-01T08:30:37;6.68;;;3.85;;
21822;SDS011;11074;48.596;9.238;2023-08-01T08:33:03;7.38;;;4.20;;
21822;SDS011;11074;48.596;9.238;2023-08-01T08:35:31;6.13;;;3.95;;
21822;SDS011;11074;48.596;9.238;2023-08-01T08:38:01;7.05;;;3.70;;
21822;SDS011;11074;48.596;9.238;2023-08-01T08:40:29;6.38;;;3.53;;
21822;SDS011;11074;48.596;9.238;2023-08-01T08:42:57;8.65;;;3.63;;
21822;SDS011;11074;48.596;9.238;2023-08-01T08:45:32;5.85;;;3.25;;
21822;SDS011;11074;48.596;9.238;2023-08-01T08:48:01;5.40;;;3.33;;
21822;SDS011;11074;48.596;9.238;2023-08-01T08:53:00;4.63;;;3.00;;
21822;SDS011;11074;48.596;9.238;2023-08-01T08:55:27;4.35;;;2.70;;
21822;SDS011;11074;48.596;9.238;2023-08-01T08:57:56;4.07;;;2.88;;
21822;SDS011;11074;48.596;9.238;2023-08-01T09:00:24;4.75;;;2.60;;
21822;SDS011;11074;48.596;9.238;2023-08-01T09:02:52;4.95;;;2.42;;
21822;SDS011;11074;48.596;9.238;2023-08-01T09:05:18;3.58;;;2.40;;
21822;SDS011;11074;48.596;9.238;2023-08-01T09:07:48;4.70;;;2.88;;
21822;SDS011;11074;48.596;9.238;2023-08-01T09:10:16;4.65;;;2.40;;
21822;SDS011;11074;48.596;9.238;2023-08-01T09:12:42;4.15;;;2.72;;
21822;SDS011;11074;48.596;9.238;2023-08-01T09:15:08;5.22;;;2.50;;
21822;SDS011;11074;48.596;9.238;2023-08-01T09:17:35;3.63;;;2.47;;
21822;SDS011;11074;48.596;9.238;2023-08-01T09:20:07;4.15;;;2.53;;
21822;SDS011;11074;48.596;9.238;2023-08-01T09:22:43;3.40;;;2.10;;
21822;SDS011;11074;48.596;9.238;2023-08-01T09:25:10;5.10;;;2.22;;
21822;SDS011;11074;48.596;9.238;2023-08-01T09:27:37;4.35;;;2.58;;
21822;SDS011;11074;48.596;9.238;2023-08-01T09:30:07;2.78;;;2.13;;
21822;SDS011;11074;48.596;9.238;2023-08-01T09:32:40;4.63;;;2.53;;
21822;SDS011;11074;48.596;9.238;2023-08-01T09:35:19;4.00;;;2.40;;
21822;SDS011;11074;48.596;9.238;2023-08-01T09:37:46;3.67;;;2.20;;
21822;SDS011;11074;48.596;9.238;2023-08-01T09:40:13;4.07;;;2.25;;
21822;SDS011;11074;48.596;9.238;2023-08-01T09:42:43;3.13;;;1.92;;
21822;SDS011;11074;48.596;9.238;2023-08-01T09:45:13;3.55;;;2.17;;
21822;SDS011;11074;48.596;9.238;2023-08-01T09:47:45;3.67;;;2.40;;
21822;SDS011;11074;48.596;9.238;2023-08-01T09:50:12;4.70;;;2.05;;
21822;SDS011;11074;48.596;9.238;2023-08-01T09:52:46;2.65;;;1.67;;
21822;SDS011;11074;48.596;9.238;2023-08-01T09:55:17;3.80;;;1.92;;
21822;SDS011;11074;48.596;9.238;2023-08-01T09:57:59;3.00;;;2.08;;
21822;SDS011;11074;48.596;9.238;2023-08-01T10:00:26;3.60;;;2.05;;
21822;SDS011;11074;48.596;9.238;2023-08-01T10:02:54;3.38;;;1.95;;
21822;SDS011;11074;48.596;9.238;2023-08-01T10:05:25;2.45;;;1.80;;
21822;SDS011;11074;48.596;9.238;2023-08-01T10:07:56;3.13;;;1.83;;
21822;SDS011;11074;48.596;9.238;2023-08-01T10:10:25;3.13;;;1.73;;
21822;SDS011;11074;48.596;9.238;2023-08-01T10:12:52;3.33;;;1.63;;
21822;SDS011;11074;48.596;9.238;2023-08-01T10:15:25;2.97;;;1.80;;
21822;SDS011;11074;48.596;9.238;2023-08-01T10:17:53;4.57;;;2.08;;
21822;SDS011;11074;48.596;9.238;2023-08-01T10:20:20;2.97;;;1.65;;
21822;SDS011;11074;48.596;9.238;2023-08-01T10:22:48;3.38;;;1.50;;
21822;SDS011;11074;48.596;9.238;2023-08-01T10:25:17;3.22;;;1.50;;
21822;SDS011;11074;48.596;9.238;2023-08-01T10:27:44;3.00;;;1.50;;
21822;SDS011;11074;48.596;9.238;2023-08-01T10:30:09;3.85;;;1.60;;
21822;SDS011;11074;48.596;9.238;2023-08-01T10:32:36;4.15;;;1.70;;
21822;SDS011;11074;48.596;9.238;2023-08-01T10:35:04;2.47;;;1.40;;
21822;SDS011;11074;48.596;9.238;2023-08-01T10:37:43;3.53;;;1.63;;
21822;SDS011;11074;48.596;9.238;2023-08-01T10:40:14;3.63;;;1.70;;
21822;SDS011;11074;48.596;9.238;2023-08-01T10:42:40;3.00;;;1.63;;
21822;SDS011;11074;48.596;9.238;2023-08-01T10:45:19;2.92;;;1.42;;
21822;SDS011;11074;48.596;9.238;2023-08-01T10:47:48;3.00;;;1.42;;
21822;SDS011;11074;48.596;9.238;2023-08-01T10:50:15;3.88;;;1.50;;
21822;SDS011;11074;48.596;9.238;2023-08-01T10:52:42;1.83;;;1.05;;
21822;SDS011;11074;48.596;9.238;2023-08-01T10:55:09;3.40;;;1.40;;
21822;SDS011;11074;48.596;9.238;2023-08-01T10:57:36;4.22;;;1.35;;
21822;SDS011;11074;48.596;9.238;2023-08-01T11:00:15;1.88;;;1.23;;
21822;SDS011;11074;48.596;9.238;2023-08-01T11:02:48;1.90;;;1.20;;
21822;SDS011;11074;48.596;9.238;2023-08-01T11:05:16;1.77;;;1.00;;
21822;SDS011;11074;48.596;9.238;2023-08-01T11:07:42;1.85;;;1.05;;
21822;SDS011;11074;48.596;9.238;2023-08-01T11:10:20;2.10;;;1.15;;
21822;SDS011;11074;48.596;9.238;2023-08-01T11:12:47;1.10;;;0.85;;
21822;SDS011;11074;48.596;9.238;2023-08-01T11:15:13;2.45;;;1.10;;
21822;SDS011;11074;48.596;9.238;2023-08-01T11:17:41;2.60;;;1.15;;
21822;SDS011;11074;48.596;9.238;2023-08-01T11:20:12;1.98;;;1.15;;
21822;SDS011;11074;48.596;9.238;2023-08-01T11:22:48;2.10;;;1.13;;
21822;SDS011;11074;48.596;9.238;2023-08-01T11:25:14;1.67;;;0.90;;
21822;SDS011;11074;48.596;9.238;2023-08-01T11:27:40;2.40;;;1.38;;
21822;SDS011;11074;48.596;9.238;2023-08-01T11:30:06;1.77;;;1.10;;
21822;SDS011;11074;48.596;9.238;2023-08-01T11:32:33;1.45;;;1.00;;
21822;SDS011;11074;48.596;9.238;2023-08-01T11:35:01;1.27;;;0.80;;
21822;SDS011;11074;48.596;9.238;2023-08-01T11:37:27;2.45;;;1.20;;
21822;SDS011;11074;48.596;9.238;2023-08-01T11:39:55;2.17;;;1.48;;
21822;SDS011;11074;48.596;9.238;2023-08-01T11:42:22;3.30;;;1.30;;
21822;SDS011;11074;48.596;9.238;2023-08-01T11:44:48;4.10;;;0.90;;
21822;SDS011;11074;48.596;9.238;2023-08-01T11:47:14;4.28;;;1.10;;
21822;SDS011;11074;48.596;9.238;2023-08-01T11:49:48;1.70;;;1.02;;
21822;SDS011;11074;48.596;9.238;2023-08-01T11:52:22;2.38;;;1.17;;
21822;SDS011;11074;48.596;9.238;2023-08-01T11:54:51;1.90;;;1.02;;
21822;SDS011;11074;48.596;9.238;2023-08-01T11:57:19;1.67;;;1.00;;
21822;SDS011;11074;48.596;9.238;2023-08-01T11:59:49;5.53;;;1.10;;
21822;SDS011;11074;48.596;9.238;2023-08-01T12:02:28;2.05;;;0.90;;
21822;SDS011;11074;48.596;9.238;2023-08-01T12:04:56;2.92;;;1.30;;
21822;SDS011;11074;48.596;9.238;2023-08-01T12:07:24;9.18;;;2.25;;
21822;SDS011;11074;48.596;9.238;2023-08-01T12:09:57;2.67;;;1.33;;
21822;SDS011;11074;48.596;9.238;2023-08-01T12:12:28;2.55;;;0.90;;
21822;SDS011;11074;48.596;9.238;2023-08-01T12:14:54;3.97;;;1.50;;
21822;SDS011;11074;48.596;9.238;2023-08-01T12:17:21;2.03;;;1.10;;
21822;SDS011;11074;48.596;9.238;2023-08-01T12:19:47;1.85;;;0.98;;
21822;SDS011;11074;48.596;9.238;2023-08-01T12:22:13;2.35;;;1.10;;
21822;SDS011;11074;48.596;9.238;2023-08-01T12:24:39;2.90;;;0.98;;
21822;SDS011;11074;48.596;9.238;2023-08-01T12:27:06;1.10;;;0.70;;
21822;SDS011;11074;48.596;9.238;2023-08-01T12:29:33;3.65;;;0.95;;
21822;SDS011;11074;48.596;9.238;2023-08-01T12:31:59;1.50;;;0.93;;
21822;SDS011;11074;48.596;9.238;2023-08-01T12:34:25;2.53;;;1.00;;
21822;SDS011;11074;48.596;9.238;2023-08-01T12:36:50;2.88;;;1.17;;
21822;SDS011;11074;48.596;9.238;2023-08-01T12:39:16;2.65;;;1.20;;
21822;SDS011;11074;48.596;9.238;2023-08-01T12:41:42;1.40;;;1.10;;
21822;SDS011;11074;48.596;9.238;2023-08-01T12:44:07;1.30;;;0.90;;
21822;SDS011;11074;48.596;9.238;2023-08-01T12:46:33;2.42;;;1.13;;
21822;SDS011;11074;48.596;9.238;2023-08-01T12:48:59;2.97;;;1.10;;
21822;SDS011;11074;48.596;9.238;2023-08-01T12:51:26;1.98;;;0.90;;
21822;SDS011;11074;48.596;9.238;2023-08-01T12:53:51;1.67;;;0.88;;
21822;SDS011;11074;48.596;9.238;2023-08-01T12:56:17;2.65;;;0.98;;
21822;SDS011;11074;48.596;9.238;2023-08-01T12:58:43;1.50;;;1.00;;
21822;SDS011;11074;48.596;9.238;2023-08-01T13:01:09;2.97;;;1.27;;
21822;SDS011;11074;48.596;9.238;2023-08-01T13:03:34;2.15;;;1.05;;
21822;SDS011;11074;48.596;9.238;2023-08-01T13:06:00;2.38;;;0.90;;
21822;SDS011;11074;48.596;9.238;2023-08-01T13:08:26;1.48;;;0.90;;
21822;SDS011;11074;48.596;9.238;2023-08-01T13:10:51;2.30;;;0.98;;
21822;SDS011;11074;48.596;9.238;2023-08-01T13:13:17;1.38;;;0.90;;
21822;SDS011;11074;48.596;9.238;2023-08-01T13:15:43;3.53;;;1.20;;
21822;SDS011;11074;48.596;9.238;2023-08-01T13:18:09;2.28;;;0.90;;
21822;SDS011;11074;48.596;9.238;2023-08-01T13:20:35;1.50;;;0.90;;
21822;SDS011;11074;48.596;9.238;2023-08-01T13:23:01;3.08;;;0.88;;
21822;SDS011;11074;48.596;9.238;2023-08-01T13:25:29;2.33;;;1.10;;
21822;SDS011;11074;48.596;9.238;2023-08-01T13:27:55;1.52;;;0.95;;
21822;SDS011;11074;48.596;9.238;2023-08-01T13:30:20;1.63;;;1.08;;
21822;SDS011;11074;48.596;9.238;2023-08-01T13:32:46;1.63;;;1.00;;
21822;SDS011;11074;48.596;9.238;2023-08-01T13:35:12;1.52;;;0.95;;
21822;SDS011;11074;48.596;9.238;2023-08-01T13:37:39;2.40;;;1.10;;
21822;SDS011;11074;48.596;9.238;2023-08-01T13:40:05;2.35;;;1.00;;
21822;SDS011;11074;48.596;9.238;2023-08-01T13:42:32;2.42;;;1.10;;
21822;SDS011;11074;48.596;9.238;2023-08-01T13:44:58;2.00;;;1.10;;
21822;SDS011;11074;48.596;9.238;2023-08-01T13:47:24;3.38;;;0.90;;
21822;SDS011;11074;48.596;9.238;2023-08-01T13:49:50;2.85;;;1.00;;
21822;SDS011;11074;48.596;9.238;2023-08-01T13:52:16;1.88;;;1.10;;
21822;SDS011;11074;48.596;9.238;2023-08-01T13:54:42;1.70;;;0.77;;
21822;SDS011;11074;48.596;9.238;2023-08-01T13:57:07;4.38;;;1.30;;
21822;SDS011;11074;48.596;9.238;2023-08-01T13:59:33;2.53;;;1.30;;
21822;SDS011;11074;48.596;9.238;2023-08-01T14:01:59;1.63;;;1.02;;
21822;SDS011;11074;48.596;9.238;2023-08-01T14:04:25;1.90;;;0.93;;
21822;SDS011;11074;48.596;9.238;2023-08-01T14:06:51;1.65;;;1.02;;
21822;SDS011;11074;48.596;9.238;2023-08-01T14:09:16;1.75;;;1.00;;
21822;SDS011;11074;48.596;9.238;2023-08-01T14:11:42;2.03;;;1.17;;
21822;SDS011;11074;48.596;9.238;2023-08-01T14:14:08;1.88;;;1.17;;
21822;SDS011;11074;48.596;9.238;2023-08-01T14:16:33;2.13;;;1.00;;
21822;SDS011;11074;48.596;9.238;2023-08-01T14:18:59;1.38;;;0.93;;
21822;SDS011;11074;48.596;9.238;2023-08-01T14:21:26;2.45;;;1.10;;
21822;SDS011;11074;48.596;9.238;2023-08-01T14:23:51;2.10;;;1.50;;
21822;SDS011;11074;48.596;9.238;2023-08-01T14:26:17;1.52;;;0.98;;
21822;SDS011;11074;48.596;9.238;2023-08-01T14:28:43;3.25;;;1.80;;
21822;SDS011;11074;48.596;9.238;2023-08-01T14:31:08;4.35;;;2.40;;
21822;SDS011;11074;48.596;9.238;2023-08-01T14:33:34;2.30;;;1.52;;
21822;SDS011;11074;48.596;9.238;2023-08-01T14:36:00;3.20;;;1.70;;
21822;SDS011;11074;48.596;9.238;2023-08-01T14:38:26;1.77;;;1.08;;
21822;SDS011;11074;48.596;9.238;2023-08-01T14:40:52;6.35;;;4.10;;
21822;SDS011;11074;48.596;9.238;2023-08-01T14:43:18;2.97;;;2.03;;
21822;SDS011;11074;48.596;9.238;2023-08-01T14:45:45;3.63;;;1.40;;
21822;SDS011;11074;48.596;9.238;2023-08-01T14:48:11;2.83;;;1.55;;